Time;durP1;ratioP1;P1;durP2;ratioP2;P2;SDS_P1;SDS_P2;PMS_P1;PMS_P2;Temp;Humidity;BMP_temperature;BMP_pressure;BME280_temperature;BME280_humidity;BME280_pressure;Samples;Min_cycle;Max_cycle;Signal;HPM_P1;HPM_P2
2022/04/30 00:03:28;;;;;;;14.10;8.73;;;;;;;4.57;81.43;102614.16;10452725;28;20064;-74
2022/04/30 00:08:28;;;;;;;16.52;9.50;;;;;;;4.51;81.90;102609.25;10434685;28;20064;-74
2022/04/30 00:13:29;;;;;;;18.40;9.52;;;;;;;4.51;81.79;102615.38;10452895;28;20087;-74
2022/04/30 00:18:30;;;;;;;12.65;7.15;;;;;;;4.43;81.86;102613.69;10484916;28;20045;-74
2022/04/30 00:23:30;;;;;;;17.05;9.82;;;;;;;4.34;82.36;102613.66;10493321;28;20072;-73
2022/04/30 00:28:31;;;;;;;13.65;8.57;;;;;;;4.23;82.25;102611.66;10492644;28;20060;-74
2022/04/30 00:33:31;;;;;;;14.68;8.52;;;;;;;4.17;82.66;102606.78;10492928;28;20136;-73
2022/04/30 00:38:32;;;;;;;16.05;8.73;;;;;;;4.14;83.07;102605.53;10455482;28;20424;-74
2022/04/30 00:43:45;;;;;;;17.25;8.63;;;;;;;4.10;83.13;102610.41;10485569;28;20476;-74
2022/04/30 00:48:46;;;;;;;13.07;8.65;;;;;;;4.08;83.36;102611.03;10500774;28;20400;-74
2022/04/30 00:53:48;;;;;;;15.93;8.88;;;;;;;4.06;83.31;102612.56;10472645;28;20067;-74
2022/04/30 00:58:49;;;;;;;24.23;9.52;;;;;;;4.08;83.70;102606.75;10440435;28;20036;-73
2022/04/30 01:03:50;;;;;;;13.23;7.95;;;;;;;4.09;83.55;102610.28;10493958;28;20060;-74
2022/04/30 01:08:50;;;;;;;18.58;9.63;;;;;;;4.01;83.87;102613.75;10541789;28;20441;-74
2022/04/30 01:13:51;;;;;;;14.88;7.45;;;;;;;3.89;84.27;102614.34;10540009;28;20043;-74
2022/04/30 01:18:51;;;;;;;14.40;8.10;;;;;;;3.93;83.97;102608.72;10540346;28;20024;-73
2022/04/30 01:23:52;;;;;;;10.98;8.15;;;;;;;3.85;84.49;102609.59;10523247;28;20483;-74
2022/04/30 01:28:52;;;;;;;14.13;8.20;;;;;;;3.84;84.33;102593.88;10523419;28;20085;-74
2022/04/30 01:39:13;;;;;;;22.20;8.13;;;;;;;3.62;84.73;102592.59;10540177;28;20044;-74
2022/04/30 01:44:14;;;;;;;11.02;6.70;;;;;;;3.53;85.16;102592.53;10539206;28;20028;-74
2022/04/30 01:49:16;;;;;;;13.48;7.35;;;;;;;3.52;85.69;102595.91;10538785;28;20032;-74
2022/04/30 01:54:17;;;;;;;13.65;7.03;;;;;;;3.47;85.53;102603.97;10521832;28;20028;-73
2022/04/30 01:59:17;;;;;;;13.23;7.95;;;;;;;3.43;85.20;102600.13;10539265;28;20028;-74
2022/04/30 02:04:18;;;;;;;15.60;8.15;;;;;;;3.38;85.39;102601.31;10540394;28;20055;-74
2022/04/30 02:09:18;;;;;;;11.75;7.15;;;;;;;3.40;85.81;102594.63;10538656;28;20052;-74
2022/04/30 02:14:19;;;;;;;15.65;8.30;;;;;;;3.37;85.78;102599.47;10537545;28;20172;-73
2022/04/30 02:19:20;;;;;;;22.65;7.75;;;;;;;3.27;85.45;102589.84;10521578;28;20054;-74
2022/04/30 02:24:20;;;;;;;15.55;8.85;;;;;;;3.20;85.91;102592.53;10500192;28;20021;-74
2022/04/30 02:29:21;;;;;;;13.05;7.35;;;;;;;3.15;86.09;102588.56;10478943;28;20513;-74
2022/04/30 02:34:21;;;;;;;13.98;7.90;;;;;;;3.08;86.54;102590.50;10496441;28;20115;-74
2022/04/30 02:39:22;;;;;;;17.85;8.13;;;;;;;3.11;86.96;102589.00;10497085;28;20067;-74
2022/04/30 02:44:23;;;;;;;16.00;8.82;;;;;;;3.11;86.59;102578.63;10494437;28;20052;-73
2022/04/30 02:49:24;;;;;;;13.48;7.13;;;;;;;3.02;86.53;102574.31;10495483;28;20040;-74
2022/04/30 02:54:25;;;;;;;11.32;6.63;;;;;;;2.96;87.10;102575.34;10495309;28;20063;-74
2022/04/30 03:04:45;;;;;;;16.25;7.85;;;;;;;2.84;87.98;102577.56;10488415;28;20477;-73
2022/04/30 03:09:47;;;;;;;17.08;9.13;;;;;;;2.77;88.12;102563.03;10454035;28;20037;-74
2022/04/30 03:14:47;;;;;;;17.65;8.02;;;;;;;2.71;88.40;102562.38;10454206;28;20032;-74
2022/04/30 03:25:07;;;;;;;12.10;7.47;;;;;;;2.52;89.21;102564.69;10438576;28;20025;-74
2022/04/30 03:30:09;;;;;;;14.82;9.65;;;;;;;2.40;89.32;102565.19;10435578;28;20028;-73
2022/04/30 03:35:12;;;;;;;17.80;10.27;;;;;;;2.33;89.83;102561.03;10453551;28;20067;-74
2022/04/30 03:40:14;;;;;;;18.38;9.50;;;;;;;2.31;89.97;102556.44;10453358;28;20033;-74
2022/04/30 03:45:14;;;;;;;16.33;10.50;;;;;;;2.24;89.70;102557.44;10452606;28;20082;-74
2022/04/30 03:50:15;;;;;;;19.80;10.02;;;;;;;2.14;89.90;102560.72;10419347;28;20033;-74
2022/04/30 03:55:15;;;;;;;18.88;11.43;;;;;;;2.01;89.94;102563.59;10452481;28;20255;-74
2022/04/30 04:00:16;;;;;;;23.88;11.63;;;;;;;1.98;90.45;102571.00;10413199;28;20031;-73
2022/04/30 04:05:17;;;;;;;19.10;10.15;;;;;;;1.84;91.24;102571.16;10427278;28;20481;-74
2022/04/30 04:10:18;;;;;;;20.58;11.23;;;;;;;1.92;91.98;102572.91;10432396;28;20041;-73
2022/04/30 04:20:37;;;;;;;21.40;12.13;;;;;;;2.05;92.07;102578.69;10458700;28;20072;-73
2022/04/30 04:30:57;;;;;;;19.48;12.25;;;;;;;2.16;91.97;102581.53;10444778;28;20029;-73
2022/04/30 04:35:57;;;;;;;21.40;13.88;;;;;;;2.12;92.07;102574.19;10441929;28;20079;-74
2022/04/30 04:40:58;;;;;;;20.42;12.10;;;;;;;2.10;92.53;102576.63;10459755;28;20112;-73
2022/04/30 04:46:00;;;;;;;19.90;12.85;;;;;;;2.38;92.29;102579.63;10446419;28;20096;-74
2022/04/30 04:51:00;;;;;;;25.25;13.88;;;;;;;2.58;92.04;102593.78;10399851;28;20370;-74
2022/04/30 04:56:03;;;;;;;18.20;11.43;;;;;;;2.65;92.02;102593.69;10411172;28;20064;-74
2022/04/30 05:01:04;;;;;;;16.55;11.10;;;;;;;2.70;92.23;102589.94;10428502;28;20060;-74
2022/04/30 05:06:04;;;;;;;22.70;14.75;;;;;;;3.02;92.38;102601.84;10423549;28;20091;-73
2022/04/30 05:11:05;;;;;;;19.15;11.45;;;;;;;3.16;91.92;102600.75;10446530;28;20045;-74
2022/04/30 05:16:05;;;;;;;22.52;13.55;;;;;;;3.34;91.35;102601.75;10426298;28;20029;-74
2022/04/30 05:21:06;;;;;;;21.42;13.20;;;;;;;3.42;91.50;102611.22;10414186;28;20033;-74
2022/04/30 05:26:06;;;;;;;25.48;12.80;;;;;;;3.75;91.75;102612.00;10455409;28;20088;-74
2022/04/30 05:31:07;;;;;;;18.60;10.68;;;;;;;4.09;90.97;102607.69;10424079;28;20128;-74
2022/04/30 05:36:08;;;;;;;23.63;12.70;;;;;;;4.68;89.76;102608.38;10423184;28;20123;-74
2022/04/30 05:41:08;;;;;;;17.52;11.38;;;;;;;5.87;85.53;102606.81;10424749;28;20924;-73
2022/04/30 05:46:09;;;;;;;17.70;9.55;;;;;;;6.41;78.30;102604.88;10432200;28;20497;-74
2022/04/30 05:51:09;;;;;;;15.05;9.05;;;;;;;6.15;78.83;102609.47;10431315;28;20059;-74
2022/04/30 05:56:10;;;;;;;15.25;8.52;;;;;;;6.15;80.74;102611.16;10455784;28;20124;-74
2022/04/30 06:01:10;;;;;;;17.45;9.68;;;;;;;6.39;80.76;102614.22;10450626;28;20076;-74
2022/04/30 06:06:11;;;;;;;15.88;10.55;;;;;;;7.70;76.29;102616.28;10395749;28;20140;-74
2022/04/30 06:11:12;;;;;;;16.02;8.50;;;;;;;9.08;69.48;102609.63;10414208;28;20128;-73
2022/04/30 06:16:12;;;;;;;14.20;8.32;;;;;;;9.84;65.73;102616.56;10412463;28;20353;-74
2022/04/30 06:21:13;;;;;;;12.10;7.88;;;;;;;10.10;65.89;102611.50;10414325;28;20029;-74
2022/04/30 06:26:13;;;;;;;12.55;7.55;;;;;;;10.56;62.99;102620.31;10414644;28;20073;-74
2022/04/30 06:31:14;;;;;;;11.93;8.32;;;;;;;11.46;62.04;102621.66;10412770;28;20053;-74
2022/04/30 06:36:14;;;;;;;13.02;7.30;;;;;;;11.96;58.71;102619.00;10416560;28;20122;-74
2022/04/30 06:41:15;;;;;;;14.02;8.30;;;;;;;11.59;60.03;102614.66;10449129;28;20025;-74
2022/04/30 06:46:16;;;;;;;16.85;7.57;;;;;;;12.65;57.01;102612.34;10435782;28;20764;-74
2022/04/30 06:51:16;;;;;;;11.95;6.75;;;;;;;14.72;51.20;102609.41;10454138;28;20078;-74
2022/04/30 07:06:58;;;;;;;20.33;7.55;;;;;;;11.82;58.44;102604.88;10439885;28;20041;-74
2022/04/30 07:12:04;;;;;;;10.18;6.00;;;;;;;13.88;54.24;102604.41;10436560;28;20116;-74
2022/04/30 07:17:06;;;;;;;10.90;5.28;;;;;;;16.34;46.74;102606.84;10453514;28;20045;-74
2022/04/30 07:22:09;;;;;;;10.27;5.17;;;;;;;17.66;42.57;102601.78;10436402;28;20021;-74
2022/04/30 07:27:09;;;;;;;9.27;5.65;;;;;;;18.28;42.88;102607.19;10419187;28;20295;-74
2022/04/30 07:32:10;;;;;;;10.07;5.80;;;;;;;16.84;43.74;102614.63;10452598;28;20069;-74
2022/04/30 07:37:11;;;;;;;13.18;5.72;;;;;;;15.70;47.93;102618.41;10453217;28;20122;-74
2022/04/30 07:42:11;;;;;;;11.00;7.63;;;;;;;18.19;42.00;102615.66;10453243;28;20047;-74
2022/04/30 07:47:12;;;;;;;10.15;4.75;;;;;;;19.41;38.84;102598.59;10452861;28;20116;-74
2022/04/30 07:52:12;;;;;;;10.13;6.23;;;;;;;19.12;39.33;102603.66;10454484;28;20072;-74
2022/04/30 07:57:13;;;;;;;10.05;5.70;;;;;;;14.89;44.46;102611.31;10461738;28;20041;-75
2022/04/30 08:02:13;;;;;;;13.20;7.20;;;;;;;11.89;53.16;102615.94;10460812;28;20080;-74
2022/04/30 08:07:14;;;;;;;24.55;5.90;;;;;;;11.83;55.74;102614.59;10470595;28;20086;-74
2022/04/30 08:12:17;;;;;;;5.90;4.70;;;;;;;13.97;48.20;102599.69;10502755;28;20090;-74
2022/04/30 08:17:18;;;;;;;7.90;5.38;;;;;;;14.00;49.65;102596.38;10502247;28;20044;-74
2022/04/30 08:22:19;;;;;;;6.40;3.50;;;;;;;15.84;43.65;102584.88;10501167;28;20195;-74
2022/04/30 08:27:20;;;;;;;7.53;4.03;;;;;;;17.51;40.85;102588.75;10500257;28;20139;-74
2022/04/30 08:32:26;;;;;;;8.63;2.90;;;;;;;19.85;34.49;102574.53;10501727;28;20027;-74
2022/04/30 08:37:28;;;;;;;5.88;3.35;;;;;;;20.97;32.90;102563.31;10499495;28;20425;-75
2022/04/30 08:42:29;;;;;;;;;;;;;;;21.64;30.60;102569.75;10483912;28;20025;-75
2022/04/30 08:47:30;;;;;;;6.43;3.00;;;;;;;20.86;32.77;102566.47;10498791;28;19922;-75
2022/04/30 08:52:30;;;;;;;4.53;2.83;;;;;;;21.74;31.64;102573.56;10482984;28;20086;-75
2022/04/30 08:57:31;;;;;;;6.37;3.33;;;;;;;22.36;29.79;102572.56;10500208;28;20121;-75
2022/04/30 09:02:31;;;;;;;3.13;1.83;;;;;;;21.84;29.57;102567.63;10506786;28;20028;-75
2022/04/30 09:07:33;;;;;;;10.73;3.50;;;;;;;21.17;30.17;102554.13;10541214;28;20133;-75
2022/04/30 09:12:34;;;;;;;6.10;2.47;;;;;;;20.36;31.29;102554.19;10541010;28;20039;-75
2022/04/30 09:17:35;;;;;;;6.07;2.70;;;;;;;20.90;30.62;102541.75;10541180;28;20036;-74
2022/04/30 09:22:36;;;;;;;11.23;2.72;;;;;;;21.22;30.39;102531.22;10541069;28;20278;-74
2022/04/30 09:27:48;;;;;;;8.10;3.67;;;;;;;21.46;30.69;102532.78;10540783;28;20467;-74
2022/04/30 09:32:59;;;;;;;4.70;2.58;;;;;;;21.83;28.90;102531.19;10540884;28;20384;-74
2022/04/30 09:37:59;;;;;;;9.43;3.60;;;;;;;21.48;30.24;102529.31;10540538;28;20028;-75
2022/04/30 09:43:01;;;;;;;7.18;2.88;;;;;;;22.04;29.66;102522.88;10539933;28;20067;-75
2022/04/30 09:53:56;;;;;;;4.40;3.05;;;;;;;20.97;30.17;102531.38;10539819;28;20119;-75
2022/04/30 09:58:42;;;;;;;5.53;2.42;;;;;;;21.96;28.83;102516.44;10539814;28;20091;-75
2022/04/30 10:03:43;;;;;;;4.70;2.10;;;;;;;21.93;30.13;102519.91;10522584;28;20028;-75
2022/04/30 10:08:44;;;;;;;6.13;2.77;;;;;;;22.40;27.91;102503.34;10537077;28;20199;-75
2022/04/30 10:13:57;;;;;;;3.70;2.40;;;;;;;22.70;26.74;102493.38;10537731;28;20067;-75
2022/04/30 10:19:11;;;;;;;2.88;2.13;;;;;;;23.25;26.68;102488.41;10522103;28;20360;-75
2022/04/30 10:24:14;;;;;;;4.00;2.17;;;;;;;23.94;27.63;102471.00;10522720;28;20028;-75
2022/04/30 10:29:14;;;;;;;7.47;5.07;;;;;;;24.05;25.88;102477.44;10538106;28;20479;-75
2022/04/30 10:34:15;;;;;;;6.23;2.40;;;;;;;19.66;30.12;102482.66;10538645;28;20075;-75
2022/04/30 10:39:18;;;;;;;5.78;3.05;;;;;;;16.90;33.05;102484.47;10537245;28;20062;-76
2022/04/30 10:44:29;;;;;;;3.45;2.35;;;;;;;20.52;31.10;102465.19;10537613;28;20499;-75
2022/04/30 10:49:30;;;;;;;8.43;3.17;;;;;;;18.15;33.14;102473.28;10538003;28;20043;-75
2022/04/30 10:54:30;;;;;;;9.63;3.80;;;;;;;16.50;37.09;102471.13;10537079;28;20059;-75
2022/04/30 10:59:31;;;;;;;7.00;3.15;;;;;;;16.88;35.97;102468.50;10538045;28;20032;-75
2022/04/30 11:04:31;;;;;;;5.88;3.40;;;;;;;18.95;34.36;102454.38;10536318;28;20052;-75
2022/04/30 11:09:33;;;;;;;6.45;4.28;;;;;;;19.70;33.13;102444.75;10537943;28;20102;-75
2022/04/30 11:14:34;;;;;;;7.55;4.20;;;;;;;16.72;37.68;102462.50;10519512;28;20036;-75
2022/04/30 11:19:39;;;;;;;9.27;4.43;;;;;;;15.39;40.20;102462.00;10534874;28;20299;-75
2022/04/30 11:24:40;;;;;;;6.30;4.53;;;;;;;15.15;41.21;102450.13;10519701;28;20033;-75
2022/04/30 11:29:48;;;;;;;6.63;4.60;;;;;;;15.20;43.81;102452.19;10535326;28;20061;-75
2022/04/30 11:34:53;;;;;;;9.85;4.88;;;;;;;15.84;42.48;102452.88;10536960;28;20111;-74
2022/04/30 11:39:53;;;;;;;10.38;5.57;;;;;;;16.12;41.97;102444.63;10518583;28;20031;-75
2022/04/30 11:44:54;;;;;;;8.23;5.15;;;;;;;17.76;38.16;102438.09;10534842;28;20055;-75
2022/04/30 11:50:21;;;;;;;6.88;5.05;;;;;;;20.58;33.42;102422.84;10536502;28;20078;-75
2022/04/30 11:55:21;;;;;;;6.68;4.82;;;;;;;19.82;33.80;102412.38;10531095;28;20052;-75
2022/04/30 12:00:24;;;;;;;7.68;5.32;;;;;;;19.84;33.89;102413.31;10535935;28;20032;-75
2022/04/30 12:05:29;;;;;;;8.02;5.68;;;;;;;19.47;34.62;102407.66;10535205;28;20131;-75
2022/04/30 12:10:30;;;;;;;9.50;4.75;;;;;;;17.86;38.69;102417.31;10536240;28;20048;-75
2022/04/30 12:15:33;;;;;;;11.40;4.50;;;;;;;17.22;38.93;102414.56;10517097;28;20410;-75
2022/04/30 12:26:03;;;;;;;5.63;3.80;;;;;;;15.64;40.86;102399.97;10519845;28;20111;-75
2022/04/30 12:31:03;;;;;;;8.20;4.70;;;;;;;15.83;41.66;102398.25;10536950;28;20047;-75
2022/04/30 12:36:04;;;;;;;6.53;4.57;;;;;;;15.70;39.96;102388.78;10516542;28;20126;-75
2022/04/30 12:41:06;;;;;;;6.85;4.70;;;;;;;15.94;38.78;102394.44;10540345;28;20028;-75
2022/04/30 12:46:08;;;;;;;4.85;3.90;;;;;;;16.02;39.15;102376.34;10543903;28;20036;-75
2022/04/30 12:51:10;;;;;;;;;;;;;;;19.22;35.47;102366.06;10542309;28;20092;-75
2022/04/30 12:56:11;;;;;;;9.40;4.67;;;;;;;21.00;30.94;102364.66;10542242;28;19924;-74
2022/04/30 13:01:12;;;;;;;7.67;3.60;;;;;;;19.18;33.64;102358.84;10542410;28;20486;-75
2022/04/30 13:06:13;;;;;;;8.90;5.85;;;;;;;16.62;39.47;102369.47;10542284;28;20115;-75
2022/04/30 13:16:33;;;;;;;6.68;4.78;;;;;;;15.25;40.78;102361.03;10541802;28;20039;-74
2022/04/30 13:21:34;;;;;;;6.75;4.13;;;;;;;14.96;42.05;102351.59;10541161;28;20036;-77
2022/04/30 13:26:34;;;;;;;6.82;4.95;;;;;;;15.17;42.45;102351.81;10542398;28;20047;-76
2022/04/30 13:31:35;;;;;;;8.05;4.60;;;;;;;15.40;40.81;102349.44;10539770;28;20506;-77
2022/04/30 13:36:36;;;;;;;11.05;5.90;;;;;;;16.00;38.11;102339.31;10540360;28;20051;-74
2022/04/30 13:41:36;;;;;;;9.55;4.40;;;;;;;18.42;35.96;102334.81;10539726;28;20027;-75
2022/04/30 13:46:37;;;;;;;5.25;3.67;;;;;;;21.02;31.52;102321.25;10540726;28;20476;-75
2022/04/30 13:51:38;;;;;;;4.70;3.73;;;;;;;22.56;29.58;102314.34;10538857;28;20467;-75
2022/04/30 13:56:39;;;;;;;9.15;5.35;;;;;;;20.66;32.11;102316.66;10540210;28;20020;-76
2022/04/30 14:01:42;;;;;;;8.50;5.30;;;;;;;20.13;32.59;102311.56;10506492;28;20628;-75
2022/04/30 14:06:43;;;;;;;5.80;4.00;;;;;;;21.42;30.88;102297.47;10474438;28;20044;-76
2022/04/30 14:11:43;;;;;;;13.32;5.63;;;;;;;21.05;34.02;102297.38;10456334;28;20059;-76
2022/04/30 14:16:44;;;;;;;7.85;7.03;;;;;;;21.17;33.97;102293.25;10438805;28;20060;-76
2022/04/30 14:21:44;;;;;;;8.73;5.68;;;;;;;20.68;34.93;102301.66;10455574;28;20060;-75
2022/04/30 14:26:47;;;;;;;9.15;6.05;;;;;;;19.06;36.72;102306.25;10447033;28;20079;-74
2022/04/30 14:31:48;;;;;;;11.68;7.68;;;;;;;15.73;42.62;102316.78;10416779;28;20128;-75
2022/04/30 14:36:48;;;;;;;8.75;6.28;;;;;;;16.68;40.20;102304.56;10393196;28;20116;-74
2022/04/30 14:41:49;;;;;;;10.18;6.68;;;;;;;15.58;42.42;102309.91;10417323;28;20072;-75
2022/04/30 14:46:49;;;;;;;10.45;6.10;;;;;;;15.48;42.35;102311.19;10444030;28;20071;-74
2022/04/30 14:51:50;;;;;;;11.27;5.47;;;;;;;14.27;44.79;102315.34;10419925;28;20116;-74
2022/04/30 14:56:50;;;;;;;9.93;6.18;;;;;;;14.56;43.67;102316.03;10412984;28;20039;-74
2022/04/30 15:01:51;;;;;;;6.38;5.63;;;;;;;13.32;47.46;102311.66;10412005;28;20037;-74
2022/04/30 15:06:52;;;;;;;10.00;6.47;;;;;;;12.67;48.95;102329.66;10424734;28;20163;-75
2022/04/30 15:11:53;;;;;;;10.68;6.88;;;;;;;12.45;51.20;102322.13;10424108;28;20033;-75
2022/04/30 15:16:53;;;;;;;9.43;6.28;;;;;;;12.47;51.65;102317.88;10413728;28;20033;-75
2022/04/30 15:21:54;;;;;;;7.93;5.93;;;;;;;12.60;50.83;102315.22;10405236;28;20064;-75
2022/04/30 15:26:54;;;;;;;12.05;6.35;;;;;;;12.50;50.98;102309.31;10406188;28;20063;-74
2022/04/30 15:31:56;;;;;;;13.40;6.05;;;;;;;12.54;50.39;102304.34;10387153;28;20045;-74
2022/04/30 15:36:56;;;;;;;10.20;6.72;;;;;;;12.48;51.15;102314.47;10395990;28;20029;-75
2022/04/30 15:41:56;;;;;;;9.75;6.88;;;;;;;12.56;51.90;102309.69;10451420;28;20075;-75
2022/04/30 15:52:16;;;;;;;10.30;5.63;;;;;;;12.27;51.75;102304.41;10407647;28;20029;-74
2022/04/30 15:57:18;;;;;;;13.23;6.30;;;;;;;12.42;51.70;102298.31;10404612;28;20078;-75
2022/04/30 16:02:21;;;;;;;13.45;6.45;;;;;;;12.27;51.64;102290.41;10409050;28;20083;-75
2022/04/30 16:07:22;;;;;;;12.10;5.85;;;;;;;12.31;51.61;102290.66;10428089;28;20465;-75
2022/04/30 16:12:22;;;;;;;7.97;5.38;;;;;;;12.12;51.55;102279.81;10440655;28;20066;-75
2022/04/30 16:17:23;;;;;;;7.18;5.63;;;;;;;11.84;51.96;102285.88;10465463;28;20116;-75
2022/04/30 16:22:23;;;;;;;12.48;6.70;;;;;;;11.69;52.22;102280.53;10474876;28;20481;-75
2022/04/30 16:27:27;;;;;;;8.15;5.15;;;;;;;11.51;52.37;102286.38;10465946;28;20061;-75
2022/04/30 16:32:28;;;;;;;9.80;5.88;;;;;;;11.43;52.29;102280.59;10488812;28;20041;-76
2022/04/30 16:37:28;;;;;;;9.75;6.43;;;;;;;11.28;53.22;102284.81;10509460;28;20045;-75
2022/04/30 16:42:29;;;;;;;13.35;7.35;;;;;;;11.28;54.27;102279.59;10506794;28;20094;-75
2022/04/30 16:47:29;;;;;;;7.88;5.47;;;;;;;11.27;53.57;102273.44;10508056;28;20507;-75
2022/04/30 16:52:30;;;;;;;10.35;5.60;;;;;;;11.20;53.90;102273.84;10503528;28;20112;-74
2022/04/30 16:57:31;;;;;;;7.53;5.50;;;;;;;11.46;51.89;102272.06;10508410;28;20041;-74
2022/04/30 17:02:31;;;;;;;10.45;4.90;;;;;;;11.45;53.10;102273.75;10517490;28;20495;-75
2022/04/30 17:07:35;;;;;;;9.93;6.72;;;;;;;11.48;53.73;102267.81;10550035;28;20090;-74
2022/04/30 17:12:35;;;;;;;17.73;7.63;;;;;;;11.53;52.97;102268.13;10545997;28;20035;-74
2022/04/30 17:17:38;;;;;;;8.80;5.97;;;;;;;11.46;51.93;102272.94;10451278;28;20052;-75
2022/04/30 17:22:40;;;;;;;12.32;5.53;;;;;;;11.38;52.25;102263.66;10470666;28;20032;-75
2022/04/30 17:27:42;;;;;;;11.30;4.90;;;;;;;11.27;51.93;102264.66;10475182;28;20045;-75
2022/04/30 17:38:02;;;;;;;8.70;5.30;;;;;;;11.03;53.19;102272.69;10473839;28;20388;-74
2022/04/30 17:43:03;;;;;;;10.45;5.72;;;;;;;10.89;53.27;102274.38;10478570;28;20040;-74
2022/04/30 17:48:05;;;;;;;9.10;5.57;;;;;;;10.80;53.14;102276.34;10462929;28;20391;-75
2022/04/30 17:53:08;;;;;;;13.87;6.10;;;;;;;10.75;53.63;102273.41;10483589;28;20029;-75
2022/04/30 17:58:10;;;;;;;10.48;5.80;;;;;;;10.69;53.66;102276.50;10460821;28;20029;-75
2022/04/30 18:03:11;;;;;;;8.07;6.57;;;;;;;10.72;53.74;102278.41;10479079;28;20025;-75
2022/04/30 18:08:12;;;;;;;7.60;5.38;;;;;;;10.67;54.83;102285.97;10469522;28;20548;-75
2022/04/30 18:13:13;;;;;;;10.52;5.65;;;;;;;10.53;55.67;102284.09;10464628;28;20553;-76
2022/04/30 18:18:14;;;;;;;12.43;6.53;;;;;;;10.36;56.35;102282.84;10456258;28;20400;-76
2022/04/30 18:23:14;;;;;;;9.07;6.28;;;;;;;10.27;57.22;102288.34;10459208;28;20377;-76
2022/04/30 18:28:15;;;;;;;8.38;5.00;;;;;;;10.25;56.67;102280.38;10457396;28;20039;-76
2022/04/30 18:33:15;;;;;;;10.27;4.90;;;;;;;10.21;56.32;102283.56;10459140;28;20072;-76
2022/04/30 18:38:16;;;;;;;13.50;6.90;;;;;;;10.15;57.59;102283.13;10434629;28;20024;-76
2022/04/30 18:43:16;;;;;;;9.65;5.95;;;;;;;10.02;57.30;102285.66;10435758;28;20121;-76
2022/04/30 18:48:17;;;;;;;12.38;7.03;;;;;;;9.92;58.13;102290.22;10425503;28;20045;-76
2022/04/30 18:53:18;;;;;;;11.20;6.57;;;;;;;9.82;58.38;102282.50;10444751;28;20068;-75
2022/04/30 19:03:44;;;;;;;11.27;5.53;;;;;;;9.50;61.29;102305.47;10431969;28;20476;-76
2022/04/30 19:08:45;;;;;;;8.93;6.40;;;;;;;9.33;62.32;102314.63;10473051;28;20052;-75
2022/04/30 19:13:45;;;;;;;11.40;7.05;;;;;;;9.32;62.65;102314.53;10482969;28;20055;-75
2022/04/30 19:18:46;;;;;;;13.27;6.75;;;;;;;9.12;63.87;102308.69;10479292;28;20067;-75
2022/04/30 19:23:48;;;;;;;8.57;6.05;;;;;;;9.12;63.63;102306.06;10479189;28;20063;-75
2022/04/30 19:28:49;;;;;;;9.05;5.88;;;;;;;8.99;64.17;102304.22;10461655;28;20044;-75
2022/04/30 19:33:50;;;;;;;11.90;6.50;;;;;;;8.87;64.52;102316.31;10478342;28;20392;-76
2022/04/30 19:38:50;;;;;;;14.43;7.35;;;;;;;8.76;65.74;102311.16;10486816;28;20450;-75
2022/04/30 19:43:52;;;;;;;7.95;6.50;;;;;;;8.74;65.41;102312.75;10463115;28;20075;-77
2022/04/30 19:48:52;;;;;;;9.07;5.43;;;;;;;8.77;65.76;102315.59;10486208;28;20040;-75
2022/04/30 19:53:53;;;;;;;11.98;7.30;;;;;;;8.74;65.79;102322.28;10475501;28;20142;-77
2022/04/30 19:58:53;;;;;;;11.07;6.32;;;;;;;8.86;65.79;102324.94;10476419;28;20086;-77
2022/04/30 20:03:55;;;;;;;8.93;6.63;;;;;;;8.86;66.12;102333.69;10496160;28;20064;-77
2022/04/30 20:08:55;;;;;;;14.80;7.78;;;;;;;8.68;67.59;102324.44;10440239;28;20197;-76
2022/04/30 20:19:16;;;;;;;13.80;6.03;;;;;;;8.72;68.16;102316.03;10449178;28;20049;-75
2022/04/30 20:24:17;;;;;;;11.00;6.97;;;;;;;8.64;67.92;102323.25;10417717;28;20049;-76
2022/04/30 20:29:17;;;;;;;17.00;7.82;;;;;;;8.42;68.88;102323.25;10419866;28;20032;-75
2022/04/30 20:39:42;;;;;;;10.88;6.63;;;;;;;8.23;70.10;102319.16;10440215;28;20025;-74
2022/04/30 20:44:43;;;;;;;11.27;5.65;;;;;;;8.18;70.51;102325.69;10444932;28;20484;-76
2022/04/30 20:49:43;;;;;;;12.40;8.10;;;;;;;8.10;70.62;102325.06;10441850;28;20064;-76
2022/04/30 20:54:44;;;;;;;8.70;5.45;;;;;;;7.96;71.16;102328.25;10437730;28;20548;-76
2022/04/30 20:59:44;;;;;;;11.30;6.95;;;;;;;7.81;71.79;102322.69;10433613;28;20163;-76
2022/04/30 21:04:45;;;;;;;16.23;9.75;;;;;;;7.65;71.99;102311.00;10430374;28;20050;-76
2022/04/30 21:09:46;;;;;;;14.43;9.57;;;;;;;7.64;72.93;102312.69;10446866;28;20120;-77
2022/04/30 21:14:52;;;;;;;13.73;7.18;;;;;;;7.70;72.42;102307.09;10440471;28;20092;-76
2022/04/30 21:19:53;;;;;;;9.93;7.15;;;;;;;7.93;71.46;102313.28;10404607;28;20498;-75
2022/04/30 21:24:55;;;;;;;12.55;8.73;;;;;;;7.74;71.21;102313.44;10437149;28;20129;-75
2022/04/30 21:29:56;;;;;;;;;;;;;;;7.59;72.75;102310.50;10441651;28;20036;-76
2022/04/30 21:34:57;;;;;;;12.15;8.93;;;;;;;7.45;73.84;102314.53;10414837;28;20422;-76
2022/04/30 21:39:57;;;;;;;13.85;8.30;;;;;;;7.40;74.80;102306.38;10425111;28;20030;-77
2022/04/30 21:44:58;;;;;;;16.55;8.10;;;;;;;7.60;73.38;102305.41;10422800;28;20021;-77
2022/04/30 21:49:59;;;;;;;12.43;7.72;;;;;;;7.63;73.63;102303.03;10411258;28;20056;-77
2022/04/30 22:00:23;;;;;;;23.92;14.02;;;;;;;7.33;74.98;102302.31;10415751;28;20081;-76
2022/04/30 22:05:25;;;;;;;14.00;9.63;;;;;;;7.39;75.37;102301.00;10413967;28;20041;-77
2022/04/30 22:10:26;;;;;;;13.02;7.45;;;;;;;7.60;74.95;102296.69;10427000;28;20040;-77
2022/04/30 22:15:27;;;;;;;12.07;6.50;;;;;;;7.46;75.04;102296.44;10437597;28;20102;-77
2022/04/30 22:20:28;;;;;;;18.50;10.73;;;;;;;7.34;76.14;102298.94;10439734;28;20094;-77
2022/04/30 22:25:29;;;;;;;15.55;9.90;;;;;;;7.41;75.97;102302.03;10441388;28;20032;-75
2022/04/30 22:30:30;;;;;;;14.45;10.23;;;;;;;7.52;74.72;102296.03;10446361;28;20436;-75
2022/04/30 22:35:30;;;;;;;13.80;8.32;;;;;;;7.65;73.98;102297.97;10420224;28;20099;-78
2022/04/30 22:45:50;;;;;;;12.27;7.50;;;;;;;7.63;74.51;102300.44;10422494;28;20065;-76
2022/04/30 22:50:50;;;;;;;15.23;8.23;;;;;;;7.58;74.73;102304.38;10407715;28;20112;-77
2022/04/30 22:55:51;;;;;;;12.00;8.20;;;;;;;7.56;74.31;102294.63;10431114;28;20060;-76
2022/04/30 23:00:52;;;;;;;14.60;10.75;;;;;;;7.54;74.32;102294.47;10433963;28;20051;-77
2022/04/30 23:05:52;;;;;;;11.52;8.60;;;;;;;7.42;75.12;102301.25;10421227;28;20063;-77
2022/04/30 23:10:54;;;;;;;14.60;8.45;;;;;;;7.34;76.71;102303.25;10438502;28;20047;-77
2022/04/30 23:16:04;;;;;;;13.52;10.05;;;;;;;7.22;77.36;102295.28;10422975;28;20091;-76
2022/04/30 23:21:05;;;;;;;13.60;9.70;;;;;;;7.17;77.88;102297.53;10444317;28;20056;-76
2022/04/30 23:26:07;;;;;;;12.70;9.25;;;;;;;7.28;76.25;102285.41;10409202;28;20080;-77
2022/04/30 23:31:08;;;;;;;13.67;7.30;;;;;;;7.47;75.31;102292.13;10403336;28;20038;-77
2022/04/30 23:36:08;;;;;;;13.30;8.13;;;;;;;7.49;75.39;102288.91;10430405;28;20033;-78
2022/04/30 23:41:09;;;;;;;15.30;9.18;;;;;;;7.49;75.61;102281.06;10418776;28;20029;-75
2022/04/30 23:46:12;;;;;;;16.45;9.55;;;;;;;7.48;75.11;102274.03;10437365;28;20056;-76
2022/04/30 23:51:12;;;;;;;14.95;11.25;;;;;;;7.42;75.68;102277.81;10409455;28;20120;-76
2022/04/30 23:56:13;;;;;;;15.02;9.65;;;;;;;7.38;76.63;102283.56;10410680;28;20029;-77
